Time;durP1;ratioP1;P1;durP2;ratioP2;P2;SDS_P1;SDS_P2;PMS_P1;PMS_P2;Temp;Humidity;BMP_temperature;BMP_pressure;BME280_temperature;BME280_humidity;BME280_pressure;Samples;Min_cycle;Max_cycle;Signal;HPM_P1;HPM_P2
2023/07/15 00:01:23;;;;;;;3.35;1.95;;;23.60;63.40;;;;;;5014338;28;20448;-59
2023/07/15 00:03:49;;;;;;;5.18;1.85;;;23.60;63.40;;;;;;5012852;28;20053;-59
2023/07/15 00:06:14;;;;;;;4.43;2.10;;;23.60;63.30;;;;;;5013540;28;20088;-59
2023/07/15 00:08:40;;;;;;;4.40;2.22;;;23.60;63.40;;;;;;5012644;28;20096;-60
2023/07/15 00:11:09;;;;;;;3.10;1.88;;;23.60;63.40;;;;;;5014256;28;20045;-60
2023/07/15 00:13:35;;;;;;;4.30;1.88;;;23.50;63.40;;;;;;5011825;28;20042;-60
2023/07/15 00:16:00;;;;;;;5.18;2.00;;;23.50;63.30;;;;;;5014295;28;20051;-60
2023/07/15 00:18:26;;;;;;;3.35;1.90;;;23.50;63.30;;;;;;5014308;28;20041;-59
2023/07/15 00:20:52;;;;;;;4.72;1.98;;;23.50;63.30;;;;;;5012240;28;20046;-60
2023/07/15 00:23:22;;;;;;;4.55;2.17;;;23.50;63.30;;;;;;5014267;28;20084;-59
2023/07/15 00:25:48;;;;;;;4.00;1.92;;;23.50;63.30;;;;;;5012986;28;20045;-59
2023/07/15 00:28:14;;;;;;;4.10;2.10;;;23.50;63.30;;;;;;5013684;28;20053;-59
2023/07/15 00:30:39;;;;;;;3.60;2.15;;;23.50;63.30;;;;;;5012466;28;20046;-59
2023/07/15 00:33:06;;;;;;;3.80;2.13;;;23.50;63.30;;;;;;5030586;28;20160;-60
2023/07/15 00:35:31;;;;;;;4.20;2.03;;;23.50;63.30;;;;;;5032223;28;20113;-60
2023/07/15 00:37:58;;;;;;;4.72;1.88;;;23.50;63.30;;;;;;5016709;28;20202;-60
2023/07/15 00:40:23;;;;;;;3.95;1.98;;;23.50;63.30;;;;;;5033061;28;20156;-60
2023/07/15 00:43:26;;;;;;;6.13;1.95;;;23.50;63.30;;;;;;5031365;28;20097;-60
2023/07/15 00:46:33;;;;;;;3.47;1.60;;;23.50;63.30;;;;;;5033269;28;20072;-60
2023/07/15 00:49:00;;;;;;;4.15;1.90;;;23.50;63.30;;;;;;4971629;28;20043;-59
2023/07/15 00:51:26;;;;;;;4.07;1.85;;;23.50;63.30;;;;;;5023413;28;20417;-59
2023/07/15 00:53:53;;;;;;;5.05;1.80;;;23.50;63.30;;;;;;5032687;28;20052;-60
2023/07/15 00:56:19;;;;;;;3.70;1.90;;;23.50;63.30;;;;;;5031997;28;20053;-60
2023/07/15 00:58:45;;;;;;;3.88;1.70;;;23.50;63.30;;;;;;5033015;28;20041;-60
2023/07/15 01:01:11;;;;;;;4.38;2.22;;;23.50;63.30;;;;;;5014662;28;20056;-60
2023/07/15 01:03:39;;;;;;;3.92;1.65;;;23.50;63.30;;;;;;5031831;28;20045;-60
2023/07/15 01:06:08;;;;;;;3.55;2.08;;;23.50;63.30;;;;;;5031839;28;20037;-60
2023/07/15 01:08:34;;;;;;;2.95;1.92;;;23.50;63.30;;;;;;5032275;28;20046;-60
2023/07/15 01:10:59;;;;;;;3.47;2.13;;;23.40;63.30;;;;;;5033326;28;20484;-60
2023/07/15 01:13:25;;;;;;;3.75;1.90;;;23.50;63.30;;;;;;5032659;28;20081;-60
2023/07/15 01:15:50;;;;;;;3.25;1.80;;;23.50;63.30;;;;;;5032055;28;20473;-60
2023/07/15 01:18:16;;;;;;;2.92;1.85;;;23.50;63.30;;;;;;5032701;28;20195;-59
2023/07/15 01:20:42;;;;;;;3.25;1.77;;;23.50;63.30;;;;;;5032709;28;20090;-60
2023/07/15 01:23:08;;;;;;;3.17;1.92;;;23.50;63.30;;;;;;5031973;28;20128;-60
2023/07/15 01:25:33;;;;;;;5.20;2.10;;;23.50;63.30;;;;;;5032719;28;20052;-60
2023/07/15 01:27:59;;;;;;;3.83;1.70;;;23.50;63.30;;;;;;5032551;28;20049;-60
2023/07/15 01:30:25;;;;;;;3.47;1.75;;;23.50;63.30;;;;;;5025346;28;20034;-60
2023/07/15 01:32:50;;;;;;;4.30;1.83;;;23.50;63.30;;;;;;5017902;28;20045;-60
2023/07/15 01:35:16;;;;;;;4.13;2.00;;;23.50;63.30;;;;;;5013130;28;20049;-59
2023/07/15 01:37:42;;;;;;;4.82;1.90;;;23.50;63.30;;;;;;5021842;28;20052;-60
2023/07/15 01:40:09;;;;;;;3.95;2.10;;;23.50;63.30;;;;;;5032474;28;20042;-60
2023/07/15 01:42:35;;;;;;;4.87;2.17;;;23.40;63.30;;;;;;5032093;28;20045;-60
2023/07/15 01:45:02;;;;;;;3.72;1.92;;;23.50;63.30;;;;;;5031653;28;20045;-60
2023/07/15 01:47:27;;;;;;;3.35;1.85;;;23.50;63.30;;;;;;5032216;28;20065;-60
2023/07/15 01:49:53;;;;;;;4.22;2.03;;;23.40;63.30;;;;;;5030886;28;20099;-60
2023/07/15 01:52:18;;;;;;;2.72;1.63;;;23.40;63.30;;;;;;5031587;28;20034;-60
2023/07/15 01:54:44;;;;;;;3.38;1.70;;;23.40;63.30;;;;;;5032138;28;20488;-60
2023/07/15 01:57:10;;;;;;;3.58;2.08;;;23.40;63.30;;;;;;5031662;28;20118;-60
2023/07/15 01:59:35;;;;;;;3.08;1.83;;;23.40;63.30;;;;;;5031759;28;20145;-60
2023/07/15 02:02:01;;;;;;;3.17;1.98;;;23.40;63.30;;;;;;5020961;28;20041;-59
2023/07/15 02:04:26;;;;;;;3.53;2.20;;;23.40;63.30;;;;;;5020673;28;20038;-60
2023/07/15 02:06:52;;;;;;;5.13;2.05;;;23.40;63.20;;;;;;5020289;28;20385;-59
2023/07/15 02:09:18;;;;;;;3.92;1.95;;;23.40;63.20;;;;;;5031448;28;20076;-60
2023/07/15 02:11:43;;;;;;;4.07;1.60;;;23.40;63.30;;;;;;5030757;28;20042;-59
2023/07/15 02:14:09;;;;;;;3.67;1.80;;;23.40;63.20;;;;;;5032510;28;20041;-59
2023/07/15 02:16:35;;;;;;;3.92;1.90;;;23.40;63.20;;;;;;5031762;28;20050;-59
2023/07/15 02:19:01;;;;;;;2.88;1.80;;;23.40;63.20;;;;;;5032018;28;20076;-60
2023/07/15 02:21:26;;;;;;;2.53;1.60;;;23.40;63.20;;;;;;5032264;28;20052;-60
2023/07/15 02:23:52;;;;;;;3.35;1.75;;;23.40;63.20;;;;;;5031593;28;20068;-60
2023/07/15 02:26:18;;;;;;;2.55;1.98;;;23.40;63.20;;;;;;5031328;28;20047;-60
2023/07/15 02:28:44;;;;;;;3.50;1.63;;;23.40;63.20;;;;;;5030048;28;20420;-60
2023/07/15 02:31:09;;;;;;;3.30;1.90;;;23.40;63.20;;;;;;5031854;28;20049;-60
2023/07/15 02:33:35;;;;;;;3.53;1.88;;;23.40;63.20;;;;;;5030800;28;20046;-60
2023/07/15 02:36:01;;;;;;;3.67;1.65;;;23.40;63.20;;;;;;5030917;28;20053;-60
2023/07/15 02:38:27;;;;;;;2.78;1.40;;;23.40;63.20;;;;;;5031756;28;20623;-60
2023/07/15 02:40:53;;;;;;;2.78;1.75;;;23.40;63.20;;;;;;5030077;28;20139;-60
2023/07/15 02:43:19;;;;;;;3.30;1.70;;;23.40;63.20;;;;;;5030521;28;20049;-60
2023/07/15 02:45:47;;;;;;;3.03;1.73;;;23.40;63.20;;;;;;5030538;28;20050;-60
2023/07/15 02:48:13;;;;;;;;;;;23.40;63.20;;;;;;5033247;28;20057;-60
2023/07/15 02:50:38;;;;;;;3.38;1.70;;;23.30;63.00;;;;;;5035711;28;20306;-60
2023/07/15 02:53:04;;;;;;;3.30;1.70;;;23.30;63.10;;;;;;5035714;28;20049;-60
2023/07/15 02:55:30;;;;;;;3.13;1.77;;;23.30;63.20;;;;;;5034331;28;20139;-59
2023/07/15 02:57:55;;;;;;;3.42;1.90;;;23.30;63.10;;;;;;5035306;28;20516;-60
2023/07/15 03:00:22;;;;;;;5.15;2.20;;;23.40;63.20;;;;;;5035575;28;20099;-60
2023/07/15 03:02:48;;;;;;;2.85;1.70;;;23.30;63.10;;;;;;5034324;28;20085;-59
2023/07/15 03:05:14;;;;;;;3.17;1.80;;;23.30;63.10;;;;;;5035581;28;20069;-60
2023/07/15 03:07:44;;;;;;;3.25;1.98;;;23.30;63.10;;;;;;5034056;28;20050;-60
2023/07/15 03:10:12;;;;;;;4.05;1.88;;;23.30;63.10;;;;;;5034338;28;20045;-60
2023/07/15 03:12:37;;;;;;;3.27;1.93;;;23.30;63.10;;;;;;5034797;28;20045;-60
2023/07/15 03:15:04;;;;;;;3.10;1.67;;;23.30;63.10;;;;;;5034588;28;20046;-60
2023/07/15 03:17:35;;;;;;;3.38;1.80;;;23.30;63.10;;;;;;5034499;28;20095;-60
2023/07/15 03:20:05;;;;;;;3.42;1.98;;;23.30;63.10;;;;;;5035254;28;20045;-60
2023/07/15 03:22:30;;;;;;;2.47;1.30;;;23.30;63.10;;;;;;5033913;28;20578;-60
2023/07/15 03:24:56;;;;;;;3.53;1.80;;;23.30;63.20;;;;;;5034339;28;20134;-60
2023/07/15 03:27:21;;;;;;;4.03;1.98;;;23.30;63.10;;;;;;5034408;28;20033;-60
2023/07/15 03:29:49;;;;;;;4.50;1.80;;;23.30;63.20;;;;;;5033806;28;20041;-59
2023/07/15 03:32:14;;;;;;;3.30;1.70;;;23.30;63.10;;;;;;5034761;28;20092;-60
2023/07/15 03:34:40;;;;;;;2.65;1.50;;;23.30;63.10;;;;;;5034832;28;20045;-59
2023/07/15 03:37:05;;;;;;;3.60;2.00;;;23.30;63.10;;;;;;5034014;28;20525;-60
2023/07/15 03:39:31;;;;;;;2.65;1.75;;;23.30;63.10;;;;;;5034655;28;20041;-60
2023/07/15 03:41:57;;;;;;;2.58;1.60;;;23.30;63.20;;;;;;5034518;28;20396;-60
2023/07/15 03:44:22;;;;;;;2.25;1.33;;;23.30;63.10;;;;;;5015169;28;20501;-60
2023/07/15 03:46:48;;;;;;;2.42;1.55;;;23.30;63.10;;;;;;5013499;28;20515;-60
2023/07/15 03:49:14;;;;;;;2.85;1.58;;;23.30;63.10;;;;;;5032198;28;20045;-60
2023/07/15 03:51:39;;;;;;;3.15;1.77;;;23.30;63.10;;;;;;5032297;28;20586;-60
2023/07/15 03:54:05;;;;;;;3.53;1.70;;;23.30;63.10;;;;;;5034071;28;20049;-60
2023/07/15 03:56:32;;;;;;;2.70;1.75;;;23.30;63.10;;;;;;5034282;28;20056;-60
2023/07/15 03:58:58;;;;;;;2.65;1.58;;;23.30;63.10;;;;;;5033009;28;20183;-60
2023/07/15 04:01:23;;;;;;;2.10;1.30;;;23.30;63.10;;;;;;5028312;28;20030;-60
2023/07/15 04:03:52;;;;;;;2.42;1.40;;;23.30;63.10;;;;;;5018025;28;20046;-60
2023/07/15 04:06:18;;;;;;;3.42;1.92;;;23.30;63.10;;;;;;5014220;28;20042;-60
2023/07/15 04:08:43;;;;;;;2.50;1.67;;;23.30;63.10;;;;;;5014018;28;20104;-60
2023/07/15 04:11:09;;;;;;;2.65;1.50;;;23.30;63.10;;;;;;5013362;28;20042;-60
2023/07/15 04:13:34;;;;;;;3.08;1.77;;;23.30;63.10;;;;;;5014098;28;20042;-60
2023/07/15 04:16:00;;;;;;;3.30;1.63;;;23.30;63.20;;;;;;5014170;28;20501;-60
2023/07/15 04:18:25;;;;;;;3.28;1.75;;;23.30;63.20;;;;;;5013164;28;20057;-60
2023/07/15 04:20:51;;;;;;;3.17;1.90;;;23.30;63.20;;;;;;5014222;28;20046;-60
2023/07/15 04:23:17;;;;;;;3.47;1.60;;;23.30;63.20;;;;;;5012847;28;20042;-60
2023/07/15 04:25:44;;;;;;;2.75;1.70;;;23.30;63.20;;;;;;5013083;28;20077;-60
2023/07/15 04:28:10;;;;;;;2.60;1.70;;;23.30;63.20;;;;;;5012501;28;20057;-60
2023/07/15 04:30:35;;;;;;;3.45;1.70;;;23.30;63.20;;;;;;5013900;28;20042;-60
2023/07/15 04:33:01;;;;;;;2.60;1.50;;;23.30;63.30;;;;;;5013446;28;20520;-60
2023/07/15 04:35:27;;;;;;;2.38;1.55;;;23.30;63.30;;;;;;5013883;28;20410;-60
2023/07/15 04:37:52;;;;;;;2.72;1.67;;;23.30;63.30;;;;;;5012606;28;20042;-60
2023/07/15 04:40:18;;;;;;;2.20;1.40;;;23.30;63.30;;;;;;5013190;28;20125;-60
2023/07/15 04:42:43;;;;;;;2.92;1.73;;;23.30;63.30;;;;;;5013483;28;20042;-60
2023/07/15 04:45:09;;;;;;;3.63;1.80;;;23.30;63.40;;;;;;5013780;28;20049;-60
2023/07/15 04:47:36;;;;;;;3.22;1.70;;;23.30;63.40;;;;;;5013722;28;20042;-60
2023/07/15 04:50:05;;;;;;;3.08;1.33;;;23.30;63.40;;;;;;5033557;28;20489;-60
2023/07/15 04:52:30;;;;;;;2.35;1.60;;;23.40;63.50;;;;;;5033452;28;20053;-59
2023/07/15 04:54:56;;;;;;;2.40;1.45;;;23.40;63.40;;;;;;5032029;28;20049;-60
2023/07/15 04:57:21;;;;;;;2.63;1.48;;;23.40;63.30;;;;;;5033420;28;20167;-60
2023/07/15 04:59:48;;;;;;;3.42;1.83;;;23.40;63.30;;;;;;5031615;28;20496;-60
2023/07/15 05:02:14;;;;;;;3.03;1.70;;;23.40;63.30;;;;;;5032411;28;20120;-60
2023/07/15 05:04:40;;;;;;;2.90;1.50;;;23.50;63.30;;;;;;5032392;28;20207;-60
2023/07/15 05:07:05;;;;;;;2.15;1.40;;;23.50;63.20;;;;;;5032642;28;20041;-60
2023/07/15 05:09:32;;;;;;;2.75;1.48;;;23.50;63.20;;;;;;5032887;28;20056;-60
2023/07/15 05:11:57;;;;;;;2.70;1.63;;;23.50;63.30;;;;;;5032209;28;20045;-60
2023/07/15 05:14:23;;;;;;;3.10;1.48;;;23.50;63.30;;;;;;5031943;28;20045;-60
2023/07/15 05:16:49;;;;;;;2.38;1.30;;;23.50;63.20;;;;;;5032946;28;20045;-59
2023/07/15 05:19:14;;;;;;;3.65;1.52;;;23.50;63.20;;;;;;5032839;28;20095;-59
2023/07/15 05:21:40;;;;;;;3.33;1.60;;;23.60;63.30;;;;;;5031737;28;20040;-60
2023/07/15 05:24:06;;;;;;;2.28;1.33;;;23.50;63.20;;;;;;5032687;28;20041;-60
2023/07/15 05:26:32;;;;;;;2.63;1.42;;;23.50;63.20;;;;;;5032644;28;20473;-59
2023/07/15 05:28:57;;;;;;;2.60;1.58;;;23.60;63.30;;;;;;5023482;28;20044;-59
2023/07/15 05:31:23;;;;;;;2.65;1.58;;;23.60;63.30;;;;;;5032605;28;20440;-59
2023/07/15 05:33:48;;;;;;;2.97;1.60;;;23.60;63.30;;;;;;5024368;28;20049;-59
2023/07/15 05:36:14;;;;;;;2.80;1.60;;;23.60;63.30;;;;;;5012430;28;20068;-59
2023/07/15 05:38:43;;;;;;;2.67;1.70;;;23.60;63.30;;;;;;5019349;28;20499;-59
2023/07/15 05:41:09;;;;;;;3.17;1.60;;;23.60;63.30;;;;;;5032873;28;20121;-59
2023/07/15 05:43:35;;;;;;;3.50;1.95;;;23.60;63.30;;;;;;5031304;28;20049;-60
2023/07/15 05:46:00;;;;;;;2.97;1.55;;;23.60;63.30;;;;;;5032748;28;20049;-59
2023/07/15 05:48:26;;;;;;;3.58;1.45;;;23.60;63.30;;;;;;5032629;28;20400;-60
2023/07/15 05:50:52;;;;;;;3.08;1.60;;;23.60;63.30;;;;;;5031727;28;20038;-60
2023/07/15 05:53:18;;;;;;;2.22;1.50;;;23.60;63.30;;;;;;5030830;28;20187;-60
2023/07/15 05:55:43;;;;;;;3.38;1.63;;;23.60;63.30;;;;;;5031877;28;20099;-59
2023/07/15 05:58:11;;;;;;;2.72;1.15;;;23.60;63.30;;;;;;5031101;28;20061;-58
2023/07/15 06:00:40;;;;;;;3.00;1.42;;;23.70;63.30;;;;;;5032384;28;20143;-59
2023/07/15 06:03:06;;;;;;;4.35;2.03;;;23.70;63.20;;;;;;5031535;28;20615;-59
2023/07/15 06:05:32;;;;;;;3.80;1.65;;;23.70;62.90;;;;;;5011365;28;20493;-59
2023/07/15 06:07:57;;;;;;;4.53;1.88;;;23.70;62.80;;;;;;5012628;28;20053;-59
2023/07/15 06:10:23;;;;;;;9.02;2.00;;;23.70;62.60;;;;;;5012227;28;20486;-60
2023/07/15 06:12:50;;;;;;;6.15;1.98;;;23.70;62.60;;;;;;5012540;28;20046;-59
2023/07/15 06:15:16;;;;;;;6.40;2.03;;;23.70;62.50;;;;;;5012637;28;20120;-60
2023/07/15 06:17:41;;;;;;;4.00;1.95;;;23.70;62.20;;;;;;5011579;28;20374;-59
2023/07/15 06:20:07;;;;;;;5.40;1.90;;;23.70;61.80;;;;;;5012443;28;20444;-59
2023/07/15 06:22:33;;;;;;;5.95;2.10;;;23.70;61.60;;;;;;5013207;28;20054;-59
2023/07/15 06:24:59;;;;;;;6.50;1.92;;;23.60;62.00;;;;;;5015984;28;20424;-59
2023/07/15 06:27:24;;;;;;;3.75;2.03;;;23.60;61.10;;;;;;5016334;28;20045;-59
2023/07/15 06:29:50;;;;;;;3.40;1.77;;;23.60;60.90;;;;;;5015284;28;20096;-60
2023/07/15 06:32:16;;;;;;;8.60;2.30;;;23.60;60.60;;;;;;5015282;28;20049;-60
2023/07/15 06:34:41;;;;;;;9.10;2.15;;;23.60;60.40;;;;;;5015988;28;20042;-60
2023/07/15 06:37:07;;;;;;;7.22;2.47;;;23.60;60.50;;;;;;5015917;28;20123;-60
2023/07/15 06:39:32;;;;;;;5.30;2.05;;;23.60;60.50;;;;;;5015010;28;20042;-60
2023/07/15 06:41:58;;;;;;;5.15;1.75;;;23.60;60.60;;;;;;5015993;28;20038;-61
2023/07/15 06:44:26;;;;;;;5.22;1.90;;;23.70;60.60;;;;;;5024077;28;20092;-60
2023/07/15 06:46:52;;;;;;;4.95;2.08;;;23.60;60.60;;;;;;5033379;28;20046;-60
2023/07/15 06:49:17;;;;;;;6.07;2.10;;;23.60;60.70;;;;;;5035505;28;20087;-60
2023/07/15 06:51:43;;;;;;;6.15;1.92;;;23.60;60.60;;;;;;5035395;28;20172;-60
2023/07/15 06:54:09;;;;;;;7.78;2.10;;;23.70;60.60;;;;;;5033023;28;20512;-59
2023/07/15 06:56:34;;;;;;;4.30;2.17;;;23.60;60.60;;;;;;5031215;28;20041;-60
2023/07/15 06:59:00;;;;;;;7.57;2.35;;;23.70;60.60;;;;;;5032094;28;20042;-60
2023/07/15 07:01:25;;;;;;;5.88;2.10;;;23.70;60.60;;;;;;5033062;28;20041;-61
2023/07/15 07:03:52;;;;;;;5.68;2.13;;;23.70;60.60;;;;;;5031340;28;20067;-61
2023/07/15 07:06:18;;;;;;;4.95;2.10;;;23.60;60.50;;;;;;5034549;28;20116;-61
2023/07/15 07:08:43;;;;;;;5.82;2.33;;;23.70;60.50;;;;;;5032330;28;20099;-61
2023/07/15 07:11:09;;;;;;;7.50;2.08;;;23.60;60.20;;;;;;5033523;28;20385;-60
2023/07/15 07:13:34;;;;;;;6.03;2.20;;;23.70;60.10;;;;;;5033652;28;20118;-60
2023/07/15 07:16:00;;;;;;;6.82;2.10;;;23.70;60.00;;;;;;5031200;28;20072;-60
2023/07/15 07:18:26;;;;;;;3.83;2.17;;;23.70;60.00;;;;;;5034540;28;20040;-60
2023/07/15 07:20:56;;;;;;;4.72;2.03;;;23.70;60.00;;;;;;5030553;28;20041;-60
2023/07/15 07:23:22;;;;;;;5.15;1.92;;;23.70;60.00;;;;;;5032450;28;20107;-60
2023/07/15 07:25:51;;;;;;;4.93;2.38;;;23.70;60.10;;;;;;5030952;28;20444;-60
2023/07/15 07:28:20;;;;;;;4.28;2.05;;;23.70;60.10;;;;;;5033550;28;20044;-60
2023/07/15 07:30:45;;;;;;;4.60;2.20;;;23.70;60.10;;;;;;5030979;28;20523;-60
2023/07/15 07:33:11;;;;;;;5.15;2.30;;;23.70;60.10;;;;;;5033976;28;20042;-60
2023/07/15 07:35:36;;;;;;;6.22;2.30;;;23.70;60.10;;;;;;5029219;28;20081;-61
2023/07/15 07:38:02;;;;;;;6.85;2.30;;;23.70;60.10;;;;;;5034050;28;20041;-59
2023/07/15 07:40:28;;;;;;;4.88;2.25;;;23.70;60.10;;;;;;5018147;28;20551;-60
2023/07/15 07:42:53;;;;;;;4.47;1.77;;;23.70;60.20;;;;;;5013180;28;20133;-61
2023/07/15 07:45:21;;;;;;;6.18;2.08;;;23.70;60.20;;;;;;5014515;28;20153;-62
2023/07/15 07:47:46;;;;;;;6.35;2.00;;;23.70;60.30;;;;;;5029861;28;20076;-60
2023/07/15 07:50:12;;;;;;;5.78;2.20;;;23.70;60.50;;;;;;5021408;28;20460;-60
2023/07/15 07:52:38;;;;;;;5.45;1.70;;;23.70;60.70;;;;;;5016204;28;20037;-61
2023/07/15 07:55:04;;;;;;;4.13;1.77;;;23.80;60.90;;;;;;5023187;28;20045;-60
2023/07/15 07:57:29;;;;;;;4.90;1.60;;;23.80;61.10;;;;;;5013580;28;20054;-61
2023/07/15 07:59:55;;;;;;;4.55;1.80;;;23.80;61.40;;;;;;5012791;28;20044;-60
2023/07/15 08:02:23;;;;;;;9.18;1.63;;;23.80;61.70;;;;;;5014021;28;20037;-60
2023/07/15 08:04:49;;;;;;;3.25;1.50;;;23.80;61.90;;;;;;5013382;28;20085;-60
2023/07/15 08:07:15;;;;;;;4.63;1.60;;;23.80;61.90;;;;;;5014169;28;20084;-60
2023/07/15 08:09:46;;;;;;;3.85;1.55;;;23.80;62.10;;;;;;5013624;28;20129;-60
2023/07/15 08:12:12;;;;;;;3.42;1.60;;;23.80;62.20;;;;;;5011937;28;20084;-61
2023/07/15 08:14:37;;;;;;;4.60;1.50;;;23.90;62.30;;;;;;5014018;28;20061;-61
2023/07/15 08:17:03;;;;;;;3.72;1.30;;;23.90;62.40;;;;;;5011824;28;20050;-61
2023/07/15 08:19:29;;;;;;;3.05;1.35;;;23.90;62.40;;;;;;5017228;28;20038;-61
2023/07/15 08:21:54;;;;;;;4.18;1.67;;;23.90;62.50;;;;;;5031899;28;20092;-61
2023/07/15 08:24:20;;;;;;;4.43;1.48;;;23.90;62.50;;;;;;5032592;28;20033;-61
2023/07/15 08:26:45;;;;;;;3.42;1.70;;;23.90;62.50;;;;;;5028991;28;20041;-61
2023/07/15 08:29:11;;;;;;;3.00;1.35;;;23.90;62.60;;;;;;5024063;28;20072;-61
2023/07/15 08:31:36;;;;;;;4.75;1.83;;;24.00;62.70;;;;;;5019101;28;20046;-61
2023/07/15 08:34:03;;;;;;;4.43;1.70;;;23.90;62.70;;;;;;5028741;28;20052;-58
2023/07/15 08:36:28;;;;;;;4.55;1.75;;;24.00;62.70;;;;;;5026284;28;20544;-61
2023/07/15 08:38:54;;;;;;;2.75;1.45;;;24.00;62.60;;;;;;5023650;28;20129;-59
2023/07/15 08:41:22;;;;;;;4.50;1.67;;;24.00;62.50;;;;;;5024367;28;20037;-60
2023/07/15 08:43:48;;;;;;;5.63;1.55;;;24.00;62.50;;;;;;5020933;28;20077;-60
2023/07/15 08:46:24;;;;;;;3.50;1.55;;;24.00;62.40;;;;;;5013538;28;20444;-60
2023/07/15 08:48:49;;;;;;;5.50;1.67;;;24.00;62.40;;;;;;5020969;28;20045;-60
2023/07/15 08:51:15;;;;;;;3.65;1.80;;;24.00;62.50;;;;;;5012253;28;20500;-60
2023/07/15 08:53:41;;;;;;;4.47;1.65;;;24.00;62.50;;;;;;5011942;28;20120;-61
2023/07/15 08:56:07;;;;;;;3.80;1.55;;;24.00;62.60;;;;;;4992455;28;20112;-60
2023/07/15 08:58:32;;;;;;;4.00;1.90;;;24.00;62.50;;;;;;5031428;28;20137;-61
2023/07/15 09:00:58;;;;;;;3.17;1.60;;;24.10;62.60;;;;;;5030273;28;20050;-61
2023/07/15 09:03:24;;;;;;;4.38;2.40;;;24.10;62.60;;;;;;5026353;28;20048;-61
2023/07/15 09:05:49;;;;;;;6.90;2.17;;;24.10;62.60;;;;;;5014052;28;20041;-60
2023/07/15 09:08:18;;;;;;;4.50;1.80;;;24.10;62.60;;;;;;5032159;28;20175;-60
2023/07/15 09:10:51;;;;;;;4.00;1.60;;;24.10;62.60;;;;;;5032293;28;20488;-60
2023/07/15 09:13:32;;;;;;;3.17;1.88;;;24.10;62.60;;;;;;5031750;28;20481;-60
2023/07/15 09:15:58;;;;;;;4.25;1.70;;;24.10;62.70;;;;;;5032353;28;20045;-60
2023/07/15 09:18:24;;;;;;;6.78;1.77;;;24.10;62.70;;;;;;5032892;28;20042;-59
2023/07/15 09:20:50;;;;;;;4.05;1.88;;;24.10;62.70;;;;;;5025963;28;20050;-60
2023/07/15 09:23:16;;;;;;;4.97;1.90;;;24.10;62.70;;;;;;5013034;28;20056;-60
2023/07/15 09:25:52;;;;;;;2.25;1.48;;;24.20;62.80;;;;;;5023108;28;20046;-60
2023/07/15 09:28:19;;;;;;;3.05;1.60;;;24.20;62.70;;;;;;5030533;28;20123;-60
2023/07/15 09:30:45;;;;;;;5.22;1.70;;;24.20;62.80;;;;;;5032137;28;20052;-59
2023/07/15 09:33:38;;;;;;;3.60;1.50;;;24.20;62.80;;;;;;5032522;28;20037;-60
2023/07/15 09:36:04;;;;;;;2.22;1.40;;;24.20;62.80;;;;;;5031023;28;20080;-60
2023/07/15 09:38:34;;;;;;;3.67;1.60;;;24.20;62.70;;;;;;5031029;28;20072;-60
2023/07/15 09:40:59;;;;;;;4.53;1.70;;;24.20;62.70;;;;;;5031563;28;20049;-60
2023/07/15 09:43:43;;;;;;;2.88;1.50;;;24.20;62.70;;;;;;5013524;28;20046;-60
2023/07/15 09:46:09;;;;;;;3.80;1.50;;;24.20;63.30;;;;;;5012963;28;20042;-59
2023/07/15 09:48:34;;;;;;;4.38;1.63;;;24.20;62.60;;;;;;5027433;28;20049;-60
2023/07/15 09:51:00;;;;;;;2.42;1.40;;;24.20;62.60;;;;;;5032090;28;20047;-60
2023/07/15 09:53:25;;;;;;;4.88;2.25;;;24.20;62.60;;;;;;5031114;28;20038;-60
2023/07/15 09:55:51;;;;;;;4.65;2.22;;;24.20;62.70;;;;;;5011932;28;20060;-61
2023/07/15 09:58:23;;;;;;;10.35;2.00;;;24.20;62.80;;;;;;5010374;28;20046;-60
2023/07/15 10:00:51;;;;;;;5.85;2.17;;;24.30;62.90;;;;;;5012252;28;20050;-60
2023/07/15 10:03:26;;;;;;;3.90;2.10;;;24.30;63.00;;;;;;5010541;28;20057;-59
2023/07/15 10:05:52;;;;;;;5.85;2.00;;;24.30;63.20;;;;;;5011441;28;20064;-59
2023/07/15 10:08:18;;;;;;;5.80;2.13;;;24.30;63.20;;;;;;5012939;28;20124;-59
2023/07/15 10:10:44;;;;;;;5.35;2.00;;;24.30;63.30;;;;;;4994155;28;20116;-60
2023/07/15 10:13:10;;;;;;;5.00;2.35;;;24.30;63.30;;;;;;5011500;28;20401;-60
2023/07/15 10:15:35;;;;;;;6.00;1.98;;;24.30;63.20;;;;;;4978537;28;20038;-60
2023/07/15 10:18:12;;;;;;;4.53;1.98;;;24.30;63.20;;;;;;5010639;28;20046;-60
2023/07/15 10:20:47;;;;;;;6.07;2.20;;;24.40;63.30;;;;;;5010600;28;20137;-60
2023/07/15 10:23:13;;;;;;;4.57;1.90;;;24.40;63.20;;;;;;5011224;28;20497;-60
2023/07/15 10:25:42;;;;;;;5.90;2.08;;;24.40;63.10;;;;;;5010560;28;20048;-60
2023/07/15 10:28:12;;;;;;;5.38;2.10;;;24.40;63.10;;;;;;5012605;28;20045;-59
2023/07/15 10:30:38;;;;;;;5.90;1.90;;;24.40;63.00;;;;;;5011551;28;20049;-59
2023/07/15 10:33:03;;;;;;;4.18;1.50;;;24.40;62.80;;;;;;5011575;28;20057;-59
2023/07/15 10:35:33;;;;;;;3.40;1.33;;;24.40;62.60;;;;;;5011104;28;20440;-59
2023/07/15 10:38:21;;;;;;;3.95;1.35;;;24.40;62.50;;;;;;5011948;28;20052;-59
2023/07/15 10:40:47;;;;;;;3.97;1.60;;;24.40;62.50;;;;;;5011124;28;20054;-59
2023/07/15 10:43:16;;;;;;;2.70;1.23;;;24.40;62.50;;;;;;5012288;28;20406;-59
2023/07/15 10:45:42;;;;;;;3.03;1.70;;;24.40;62.60;;;;;;5011554;28;20049;-59
2023/07/15 10:48:08;;;;;;;4.40;1.67;;;24.40;62.90;;;;;;5012226;28;20128;-59
2023/07/15 10:50:35;;;;;;;3.53;1.48;;;24.40;63.00;;;;;;5012329;28;20041;-59
2023/07/15 10:53:22;;;;;;;3.22;1.60;;;24.40;63.00;;;;;;5011808;28;20073;-59
2023/07/15 10:56:01;;;;;;;4.68;1.48;;;24.40;62.70;;;;;;5030193;28;20477;-61
2023/07/15 10:58:27;;;;;;;2.75;1.40;;;24.40;62.70;;;;;;5031060;28;20041;-60
2023/07/15 11:01:03;;;;;;;4.88;1.73;;;24.40;63.30;;;;;;5030805;28;20405;-58
2023/07/15 11:03:29;;;;;;;7.65;1.75;;;24.40;62.70;;;;;;5031970;28;20041;-59
2023/07/15 11:05:57;;;;;;;4.90;1.45;;;24.40;62.70;;;;;;5031254;28;20084;-59
2023/07/15 11:08:22;;;;;;;3.67;1.30;;;24.40;62.80;;;;;;5032033;28;20055;-58
2023/07/15 11:10:49;;;;;;;3.60;1.55;;;24.40;62.80;;;;;;5032953;28;20397;-59
2023/07/15 11:13:16;;;;;;;2.45;1.25;;;24.50;62.90;;;;;;5034776;28;20037;-60
2023/07/15 11:15:45;;;;;;;3.60;1.40;;;24.50;62.80;;;;;;5035103;28;20087;-59
2023/07/15 11:18:18;;;;;;;4.25;1.40;;;24.50;62.80;;;;;;5035147;28;20121;-59
2023/07/15 11:20:45;;;;;;;3.95;1.45;;;24.50;62.80;;;;;;5029459;28;20404;-59
2023/07/15 11:23:10;;;;;;;3.55;1.58;;;24.50;62.80;;;;;;5016889;28;20037;-59
2023/07/15 11:25:37;;;;;;;4.30;1.20;;;24.50;62.80;;;;;;5033711;28;20044;-59
2023/07/15 11:28:03;;;;;;;4.93;1.33;;;24.50;63.30;;;;;;5032403;28;20128;-58
2023/07/15 11:30:45;;;;;;;4.40;1.10;;;24.50;62.70;;;;;;5034964;28;20065;-58
2023/07/15 11:33:11;;;;;;;3.85;1.63;;;24.50;62.50;;;;;;5016125;28;20405;-58
2023/07/15 11:35:37;;;;;;;6.38;1.58;;;24.50;62.60;;;;;;5014152;28;20096;-57
2023/07/15 11:38:12;;;;;;;3.58;1.58;;;24.50;62.50;;;;;;5032562;28;20084;-58
2023/07/15 11:40:53;;;;;;;2.60;1.40;;;24.50;63.20;;;;;;5025877;28;20049;-58
2023/07/15 11:43:20;;;;;;;6.32;1.42;;;24.50;62.60;;;;;;5014003;28;20053;-58
2023/07/15 11:45:46;;;;;;;3.35;1.42;;;24.50;62.70;;;;;;5013040;28;20042;-58
2023/07/15 11:48:12;;;;;;;4.93;1.75;;;24.40;62.60;;;;;;5031811;28;20523;-58
2023/07/15 11:50:37;;;;;;;2.85;1.40;;;24.40;62.60;;;;;;5000059;28;20064;-58
2023/07/15 11:53:03;;;;;;;3.55;1.50;;;24.40;62.80;;;;;;5034249;28;20049;-58
2023/07/15 11:55:29;;;;;;;3.78;1.48;;;24.40;62.90;;;;;;5034710;28;20064;-58
2023/07/15 11:57:54;;;;;;;3.20;1.90;;;24.40;63.00;;;;;;5033399;28;20050;-58
2023/07/15 12:00:32;;;;;;;5.78;1.60;;;24.40;63.20;;;;;;5034575;28;20037;-59
2023/07/15 12:02:58;;;;;;;3.20;1.70;;;24.40;63.30;;;;;;5033145;28;20061;-58
2023/07/15 12:05:23;;;;;;;3.92;1.58;;;24.40;63.20;;;;;;5034485;28;20437;-59
2023/07/15 12:07:49;;;;;;;2.20;1.42;;;24.40;63.00;;;;;;5032672;28;20045;-58
2023/07/15 12:10:16;;;;;;;2.78;1.63;;;24.50;63.00;;;;;;5032995;28;20045;-58
2023/07/15 12:12:45;;;;;;;3.35;1.20;;;24.40;62.80;;;;;;5033395;28;20128;-58
2023/07/15 12:15:11;;;;;;;5.65;1.70;;;24.40;62.50;;;;;;5033007;28;20069;-58
2023/07/15 12:17:37;;;;;;;3.28;1.60;;;24.40;62.70;;;;;;5032898;28;20045;-58
2023/07/15 12:20:03;;;;;;;3.13;1.58;;;24.40;62.10;;;;;;5022780;28;20850;-58
2023/07/15 12:22:28;;;;;;;3.55;1.73;;;24.40;62.00;;;;;;5024375;28;20053;-58
2023/07/15 12:24:54;;;;;;;3.88;1.50;;;24.40;62.10;;;;;;5031757;28;20059;-59
2023/07/15 12:27:20;;;;;;;3.42;1.65;;;24.50;62.20;;;;;;5031567;28;20041;-59
2023/07/15 12:29:45;;;;;;;3.70;1.60;;;24.50;62.20;;;;;;5033373;28;20469;-59
2023/07/15 12:32:11;;;;;;;3.15;1.52;;;24.50;62.20;;;;;;5031305;28;20043;-59
2023/07/15 12:34:36;;;;;;;3.97;1.52;;;24.50;62.10;;;;;;5032106;28;20049;-58
2023/07/15 12:37:02;;;;;;;4.30;1.38;;;24.50;62.20;;;;;;5030596;28;20045;-59
2023/07/15 12:39:28;;;;;;;4.80;1.48;;;24.50;62.10;;;;;;5032347;28;20049;-58
2023/07/15 12:41:53;;;;;;;3.50;1.40;;;24.50;62.10;;;;;;5030240;28;20037;-59
2023/07/15 12:44:19;;;;;;;3.50;1.63;;;24.50;62.10;;;;;;5021567;28;20045;-60
2023/07/15 12:46:44;;;;;;;6.00;1.70;;;24.50;62.20;;;;;;5023921;28;20084;-59